sensor_id;sensor_type;location;lat;lon;timestamp;pressure;altitude;pressure_sealevel;temperature;humidity
9893;BME280;4985;49.092;8.542;2024-01-16T00:01:03;98771.84;;;11.01;46.54
9893;BME280;4985;49.092;8.542;2024-01-16T00:03:29;98769.00;;;11.02;47.03
9893;BME280;4985;49.092;8.542;2024-01-16T00:05:54;98770.66;;;11.03;46.65
9893;BME280;4985;49.092;8.542;2024-01-16T00:08:19;98773.28;;;11.03;46.65
9893;BME280;4985;49.092;8.542;2024-01-16T00:10:45;98775.09;;;11.03;47.12
9893;BME280;4985;49.092;8.542;2024-01-16T00:13:10;98776.72;;;11.04;46.90
9893;BME280;4985;49.092;8.542;2024-01-16T00:15:35;98788.09;;;11.04;46.86
9893;BME280;4985;49.092;8.542;2024-01-16T00:18:01;98780.19;;;11.04;46.68
9893;BME280;4985;49.092;8.542;2024-01-16T00:20:26;98776.72;;;11.04;46.76
9893;BME280;4985;49.092;8.542;2024-01-16T00:22:51;98786.44;;;11.03;46.78
9893;BME280;4985;49.092;8.542;2024-01-16T00:25:17;98780.38;;;11.03;47.01
9893;BME280;4985;49.092;8.542;2024-01-16T00:27:45;98779.56;;;11.02;46.98
9893;BME280;4985;49.092;8.542;2024-01-16T00:30:11;98783.81;;;11.03;46.70
9893;BME280;4985;49.092;8.542;2024-01-16T00:32:36;98786.44;;;11.03;46.60
9893;BME280;4985;49.092;8.542;2024-01-16T00:35:01;98791.72;;;11.03;46.95
9893;BME280;4985;49.092;8.542;2024-01-16T00:37:27;98788.09;;;11.04;47.07
9893;BME280;4985;49.092;8.542;2024-01-16T00:39:52;98789.72;;;11.05;47.18
9893;BME280;4985;49.092;8.542;2024-01-16T00:42:17;98797.63;;;11.05;47.23
9893;BME280;4985;49.092;8.542;2024-01-16T00:44:43;98791.34;;;11.06;47.33
9893;BME280;4985;49.092;8.542;2024-01-16T00:47:08;98793.00;;;11.07;47.29
9893;BME280;4985;49.092;8.542;2024-01-16T00:49:35;98786.09;;;11.06;47.46
9893;BME280;4985;49.092;8.542;2024-01-16T00:52:00;98788.53;;;11.08;47.56
9893;BME280;4985;49.092;8.542;2024-01-16T00:54:25;98777.19;;;11.07;47.30
9893;BME280;4985;49.092;8.542;2024-01-16T00:56:51;98777.19;;;11.07;46.96
9893;BME280;4985;49.092;8.542;2024-01-16T00:59:20;98780.63;;;11.08;47.10
9893;BME280;4985;49.092;8.542;2024-01-16T01:01:46;98784.28;;;11.07;47.34
9893;BME280;4985;49.092;8.542;2024-01-16T01:04:11;98782.47;;;11.07;47.28
9893;BME280;4985;49.092;8.542;2024-01-16T01:06:36;98784.09;;;11.08;47.22
9893;BME280;4985;49.092;8.542;2024-01-16T01:09:02;98789.34;;;11.08;47.35
9893;BME280;4985;49.092;8.542;2024-01-16T01:11:28;98786.09;;;11.06;47.34
9893;BME280;4985;49.092;8.542;2024-01-16T01:13:53;98786.91;;;11.07;47.51
9893;BME280;4985;49.092;8.542;2024-01-16T01:16:18;98791.00;;;11.09;47.46
9893;BME280;4985;49.092;8.542;2024-01-16T01:18:44;98790.16;;;11.09;47.42
9893;BME280;4985;49.092;8.542;2024-01-16T01:21:09;98792.66;;;11.11;47.19
9893;BME280;4985;49.092;8.542;2024-01-16T01:23:34;98790.16;;;11.09;47.32
9893;BME280;4985;49.092;8.542;2024-01-16T01:26:00;98785.91;;;11.08;47.37
9893;BME280;4985;49.092;8.542;2024-01-16T01:28:25;98794.47;;;11.10;46.89
9893;BME280;4985;49.092;8.542;2024-01-16T01:30:51;98793.63;;;11.09;46.87
9893;BME280;4985;49.092;8.542;2024-01-16T01:33:16;98792.81;;;11.09;46.84
9893;BME280;4985;49.092;8.542;2024-01-16T01:35:42;98805.00;;;11.10;46.88
9893;BME280;4985;49.092;8.542;2024-01-16T01:38:07;98805.00;;;11.10;46.81
9893;BME280;4985;49.092;8.542;2024-01-16T01:40:33;98804.16;;;11.09;47.00
9893;BME280;4985;49.092;8.542;2024-01-16T01:43:16;98812.91;;;11.10;47.12
9893;BME280;4985;49.092;8.542;2024-01-16T01:45:42;98812.25;;;11.08;47.24
9893;BME280;4985;49.092;8.542;2024-01-16T01:48:07;98812.06;;;11.09;47.18
9893;BME280;4985;49.092;8.542;2024-01-16T01:50:35;98819.16;;;11.09;47.16
9893;BME280;4985;49.092;8.542;2024-01-16T01:53:00;98817.34;;;11.09;47.47
9893;BME280;4985;49.092;8.542;2024-01-16T01:55:25;98823.44;;;11.10;47.10
9893;BME280;4985;49.092;8.542;2024-01-16T01:57:52;98820.97;;;11.08;47.18
9893;BME280;4985;49.092;8.542;2024-01-16T02:00:17;98815.69;;;11.08;47.30
9893;BME280;4985;49.092;8.542;2024-01-16T02:02:44;98826.22;;;11.08;47.36
9893;BME280;4985;49.092;8.542;2024-01-16T02:05:10;98819.00;;;11.11;47.31
9893;BME280;4985;49.092;8.542;2024-01-16T02:07:36;98812.91;;;11.10;47.29
9893;BME280;4985;49.092;8.542;2024-01-16T02:10:02;98825.91;;;11.12;47.32
9893;BME280;4985;49.092;8.542;2024-01-16T02:12:28;98820.63;;;11.12;47.32
9893;BME280;4985;49.092;8.542;2024-01-16T02:14:53;98830.16;;;11.13;47.76
9893;BME280;4985;49.092;8.542;2024-01-16T02:17:18;98832.81;;;11.13;47.79
9893;BME280;4985;49.092;8.542;2024-01-16T02:19:44;98834.44;;;11.14;47.51
9893;BME280;4985;49.092;8.542;2024-01-16T02:22:15;98836.91;;;11.15;47.78
9893;BME280;4985;49.092;8.542;2024-01-16T02:24:41;98836.06;;;11.15;47.59
9893;BME280;4985;49.092;8.542;2024-01-16T02:27:06;98829.81;;;11.16;47.83
9893;BME280;4985;49.092;8.542;2024-01-16T02:29:32;98834.06;;;11.17;47.75
9893;BME280;4985;49.092;8.542;2024-01-16T02:31:57;98830.44;;;11.18;47.77
9893;BME280;4985;49.092;8.542;2024-01-16T02:34:23;98830.44;;;11.18;48.00
9893;BME280;4985;49.092;8.542;2024-01-16T02:36:48;98827.00;;;11.17;47.87
9893;BME280;4985;49.092;8.542;2024-01-16T02:39:13;98820.72;;;11.18;47.75
9893;BME280;4985;49.092;8.542;2024-01-16T02:41:39;98830.44;;;11.18;47.89
9893;BME280;4985;49.092;8.542;2024-01-16T02:44:05;98827.81;;;11.18;47.97
9893;BME280;4985;49.092;8.542;2024-01-16T02:46:30;98829.44;;;11.19;48.00
9893;BME280;4985;49.092;8.542;2024-01-16T02:48:57;98825.16;;;11.18;48.00
9893;BME280;4985;49.092;8.542;2024-01-16T02:51:23;98826.81;;;11.19;48.04
9893;BME280;4985;49.092;8.542;2024-01-16T02:53:48;98829.44;;;11.19;47.93
9893;BME280;4985;49.092;8.542;2024-01-16T02:56:13;98835.72;;;11.18;48.02
9893;BME280;4985;49.092;8.542;2024-01-16T02:58:39;98839.34;;;11.17;47.81
9893;BME280;4985;49.092;8.542;2024-01-16T03:01:04;98835.72;;;11.18;48.08
9893;BME280;4985;49.092;8.542;2024-01-16T03:03:29;98828.63;;;11.18;47.88
9893;BME280;4985;49.092;8.542;2024-01-16T03:05:55;98838.34;;;11.18;47.97
9893;BME280;4985;49.092;8.542;2024-01-16T03:08:21;98833.06;;;11.18;48.09
9893;BME280;4985;49.092;8.542;2024-01-16T03:10:46;98847.25;;;11.17;48.03
9893;BME280;4985;49.092;8.542;2024-01-16T03:13:12;98841.78;;;11.18;47.76
9893;BME280;4985;49.092;8.542;2024-01-16T03:15:37;98840.16;;;11.17;48.15
9893;BME280;4985;49.092;8.542;2024-01-16T03:18:02;98847.88;;;11.19;48.06
9893;BME280;4985;49.092;8.542;2024-01-16T03:20:28;98843.63;;;11.18;48.08
9893;BME280;4985;49.092;8.542;2024-01-16T03:22:53;98846.25;;;11.18;48.11
9893;BME280;4985;49.092;8.542;2024-01-16T03:25:19;98844.44;;;11.18;48.00
9893;BME280;4985;49.092;8.542;2024-01-16T03:27:45;98849.69;;;11.18;48.00
9893;BME280;4985;49.092;8.542;2024-01-16T03:30:10;98855.59;;;11.20;48.17
9893;BME280;4985;49.092;8.542;2024-01-16T03:32:39;98855.78;;;11.19;47.96
9893;BME280;4985;49.092;8.542;2024-01-16T03:35:05;98848.69;;;11.19;48.12
9893;BME280;4985;49.092;8.542;2024-01-16T03:37:31;98854.78;;;11.20;48.09
9893;BME280;4985;49.092;8.542;2024-01-16T03:39:56;98855.59;;;11.20;48.00
9893;BME280;4985;49.092;8.542;2024-01-16T03:42:22;98853.16;;;11.19;48.34
9893;BME280;4985;49.092;8.542;2024-01-16T03:44:47;98854.78;;;11.20;48.01
9893;BME280;4985;49.092;8.542;2024-01-16T03:47:13;98849.53;;;11.20;48.27
9893;BME280;4985;49.092;8.542;2024-01-16T03:49:38;98846.88;;;11.20;48.07
9893;BME280;4985;49.092;8.542;2024-01-16T03:52:04;98841.63;;;11.20;48.17
9893;BME280;4985;49.092;8.542;2024-01-16T03:54:29;98833.56;;;11.21;47.96
9893;BME280;4985;49.092;8.542;2024-01-16T03:56:55;98845.88;;;11.21;48.10
9893;BME280;4985;49.092;8.542;2024-01-16T03:59:21;98845.88;;;11.21;48.02
9893;BME280;4985;49.092;8.542;2024-01-16T04:01:46;98844.25;;;11.20;47.90
9893;BME280;4985;49.092;8.542;2024-01-16T04:04:13;98838.97;;;11.20;48.25
9893;BME280;4985;49.092;8.542;2024-01-16T04:06:38;98835.53;;;11.19;47.90
9893;BME280;4985;49.092;8.542;2024-01-16T04:09:04;98838.97;;;11.20;48.08
9893;BME280;4985;49.092;8.542;2024-01-16T04:11:30;98842.44;;;11.20;47.88
9893;BME280;4985;49.092;8.542;2024-01-16T04:13:56;98838.97;;;11.20;47.94
9893;BME280;4985;49.092;8.542;2024-01-16T04:16:21;98847.56;;;11.22;48.00
9893;BME280;4985;49.092;8.542;2024-01-16T04:18:47;98843.25;;;11.21;48.05
9893;BME280;4985;49.092;8.542;2024-01-16T04:21:13;98844.09;;;11.21;48.27
9893;BME280;4985;49.092;8.542;2024-01-16T04:23:38;98843.91;;;11.23;48.17
9893;BME280;4985;49.092;8.542;2024-01-16T04:26:04;98851.81;;;11.23;48.36
9893;BME280;4985;49.092;8.542;2024-01-16T04:28:29;98853.63;;;11.22;48.16
9893;BME280;4985;49.092;8.542;2024-01-16T04:30:54;98857.09;;;11.23;48.43
9893;BME280;4985;49.092;8.542;2024-01-16T04:33:20;98847.56;;;11.22;48.33
9893;BME280;4985;49.092;8.542;2024-01-16T04:35:45;98848.38;;;11.22;48.41
9893;BME280;4985;49.092;8.542;2024-01-16T04:38:11;98838.66;;;11.23;48.27
9893;BME280;4985;49.092;8.542;2024-01-16T04:40:36;98850.19;;;11.22;48.38
9893;BME280;4985;49.092;8.542;2024-01-16T04:43:02;98834.19;;;11.23;48.39
9893;BME280;4985;49.092;8.542;2024-01-16T04:45:28;98833.38;;;11.23;48.27
9893;BME280;4985;49.092;8.542;2024-01-16T04:47:53;98833.38;;;11.23;48.26
9893;BME280;4985;49.092;8.542;2024-01-16T04:50:18;98839.47;;;11.23;48.37
9893;BME280;4985;49.092;8.542;2024-01-16T04:52:44;98835.34;;;11.21;48.37
9893;BME280;4985;49.092;8.542;2024-01-16T04:55:10;98838.66;;;11.23;48.38
9893;BME280;4985;49.092;8.542;2024-01-16T04:57:35;98832.38;;;11.24;48.17
9893;BME280;4985;49.092;8.542;2024-01-16T05:00:00;98832.56;;;11.22;48.05
9893;BME280;4985;49.092;8.542;2024-01-16T05:02:26;98835.19;;;11.22;48.40
9893;BME280;4985;49.092;8.542;2024-01-16T05:04:51;98827.09;;;11.24;48.15
9893;BME280;4985;49.092;8.542;2024-01-16T05:07:20;98825.28;;;11.24;48.21
9893;BME280;4985;49.092;8.542;2024-01-16T05:09:46;98831.38;;;11.25;48.20
9893;BME280;4985;49.092;8.542;2024-01-16T05:12:12;98823.66;;;11.23;48.43
9893;BME280;4985;49.092;8.542;2024-01-16T05:14:37;98825.28;;;11.24;48.36
9893;BME280;4985;49.092;8.542;2024-01-16T05:17:02;98819.22;;;11.24;48.12
9893;BME280;4985;49.092;8.542;2024-01-16T05:19:28;98813.94;;;11.24;48.32
9893;BME280;4985;49.092;8.542;2024-01-16T05:21:53;98803.41;;;11.24;48.30
9893;BME280;4985;49.092;8.542;2024-01-16T05:24:19;98810.47;;;11.23;48.45
9893;BME280;4985;49.092;8.542;2024-01-16T05:26:44;98806.03;;;11.24;48.27
9893;BME280;4985;49.092;8.542;2024-01-16T05:29:10;98801.75;;;11.23;48.26
9893;BME280;4985;49.092;8.542;2024-01-16T05:31:40;98802.41;;;11.25;48.25
9893;BME280;4985;49.092;8.542;2024-01-16T05:34:06;98797.13;;;11.25;48.33
9893;BME280;4985;49.092;8.542;2024-01-16T05:36:31;98799.13;;;11.23;48.16
9893;BME280;4985;49.092;8.542;2024-01-16T05:38:57;98798.13;;;11.24;48.33
9893;BME280;4985;49.092;8.542;2024-01-16T05:41:22;98792.84;;;11.24;48.48
9893;BME280;4985;49.092;8.542;2024-01-16T05:43:47;98781.50;;;11.23;48.36
9893;BME280;4985;49.092;8.542;2024-01-16T05:46:13;98788.41;;;11.24;48.31
9893;BME280;4985;49.092;8.542;2024-01-16T05:48:38;98776.06;;;11.25;48.34
9893;BME280;4985;49.092;8.542;2024-01-16T05:51:04;98781.31;;;11.25;48.15
9893;BME280;4985;49.092;8.542;2024-01-16T05:53:30;98769.16;;;11.24;48.51
9893;BME280;4985;49.092;8.542;2024-01-16T05:55:55;98772.59;;;11.24;48.26
9893;BME280;4985;49.092;8.542;2024-01-16T05:58:22;98766.50;;;11.24;48.40
9893;BME280;4985;49.092;8.542;2024-01-16T06:00:47;98768.16;;;11.25;48.38
9893;BME280;4985;49.092;8.542;2024-01-16T06:03:12;98772.59;;;11.24;48.32
9893;BME280;4985;49.092;8.542;2024-01-16T06:05:38;98771.78;;;11.24;48.43
9893;BME280;4985;49.092;8.542;2024-01-16T06:08:03;98775.22;;;11.24;48.17
9893;BME280;4985;49.092;8.542;2024-01-16T06:10:28;98773.59;;;11.23;48.27
9893;BME280;4985;49.092;8.542;2024-01-16T06:12:54;98770.16;;;11.23;48.30
9893;BME280;4985;49.092;8.542;2024-01-16T06:15:19;98770.97;;;11.23;48.52
9893;BME280;4985;49.092;8.542;2024-01-16T06:17:44;98775.41;;;11.23;48.40
9893;BME280;4985;49.092;8.542;2024-01-16T06:20:10;98766.50;;;11.24;48.53
9893;BME280;4985;49.092;8.542;2024-01-16T06:22:35;98775.41;;;11.23;48.54
9893;BME280;4985;49.092;8.542;2024-01-16T06:25:01;98762.25;;;11.23;48.54
9893;BME280;4985;49.092;8.542;2024-01-16T06:27:27;98770.97;;;11.23;48.46
9893;BME280;4985;49.092;8.542;2024-01-16T06:29:52;98775.41;;;11.23;48.32
9893;BME280;4985;49.092;8.542;2024-01-16T06:32:18;98783.13;;;11.24;48.38
9893;BME280;4985;49.092;8.542;2024-01-16T06:34:43;98776.22;;;11.23;48.58
9893;BME280;4985;49.092;8.542;2024-01-16T06:37:08;98775.41;;;11.23;48.43
9893;BME280;4985;49.092;8.542;2024-01-16T06:39:35;98773.78;;;11.22;48.52
9893;BME280;4985;49.092;8.542;2024-01-16T06:42:00;98780.69;;;11.23;48.36
9893;BME280;4985;49.092;8.542;2024-01-16T06:44:26;98780.69;;;11.23;48.37
9893;BME280;4985;49.092;8.542;2024-01-16T06:46:51;98786.13;;;11.21;48.28
9893;BME280;4985;49.092;8.542;2024-01-16T06:49:17;98785.28;;;11.21;48.54
9893;BME280;4985;49.092;8.542;2024-01-16T06:51:42;98782.50;;;11.22;48.31
9893;BME280;4985;49.092;8.542;2024-01-16T06:54:07;98786.28;;;11.20;48.35
9893;BME280;4985;49.092;8.542;2024-01-16T06:56:33;98781.03;;;11.20;48.28
9893;BME280;4985;49.092;8.542;2024-01-16T06:58:58;98781.03;;;11.20;48.41
9893;BME280;4985;49.092;8.542;2024-01-16T07:01:23;98781.03;;;11.20;48.29
9893;BME280;4985;49.092;8.542;2024-01-16T07:03:49;98776.56;;;11.20;48.37
9893;BME280;4985;49.092;8.542;2024-01-16T07:06:14;98777.38;;;11.21;48.52
9893;BME280;4985;49.092;8.542;2024-01-16T07:08:39;98777.38;;;11.21;48.21
9893;BME280;4985;49.092;8.542;2024-01-16T07:11:05;98777.38;;;11.21;48.42
9893;BME280;4985;49.092;8.542;2024-01-16T07:13:33;98779.88;;;11.22;48.50
9893;BME280;4985;49.092;8.542;2024-01-16T07:15:59;98769.47;;;11.21;48.32
9893;BME280;4985;49.092;8.542;2024-01-16T07:18:24;98779.88;;;11.22;48.47
9893;BME280;4985;49.092;8.542;2024-01-16T07:20:50;98772.13;;;11.21;48.30
9893;BME280;4985;49.092;8.542;2024-01-16T07:23:15;98774.75;;;11.21;48.49
9893;BME280;4985;49.092;8.542;2024-01-16T07:25:40;98778.06;;;11.23;48.19
9893;BME280;4985;49.092;8.542;2024-01-16T07:28:06;98776.41;;;11.22;48.36
9893;BME280;4985;49.092;8.542;2024-01-16T07:30:31;98773.94;;;11.20;48.46
9893;BME280;4985;49.092;8.542;2024-01-16T07:32:56;98773.94;;;11.20;48.27
9893;BME280;4985;49.092;8.542;2024-01-16T07:35:22;98778.38;;;11.20;48.47
9893;BME280;4985;49.092;8.542;2024-01-16T07:37:47;98782.66;;;11.21;48.54
9893;BME280;4985;49.092;8.542;2024-01-16T07:40:12;98773.94;;;11.20;48.43
9893;BME280;4985;49.092;8.542;2024-01-16T07:42:38;98756.31;;;11.21;48.33
9893;BME280;4985;49.092;8.542;2024-01-16T07:45:04;98765.06;;;11.21;48.23
9893;BME280;4985;49.092;8.542;2024-01-16T07:47:33;98756.31;;;11.21;48.56
9893;BME280;4985;49.092;8.542;2024-01-16T07:49:59;98757.97;;;11.22;48.40
9893;BME280;4985;49.092;8.542;2024-01-16T07:52:26;98761.59;;;11.21;48.35
9893;BME280;4985;49.092;8.542;2024-01-16T07:54:52;98764.22;;;11.21;48.36
9893;BME280;4985;49.092;8.542;2024-01-16T07:57:17;98764.22;;;11.21;48.36
9893;BME280;4985;49.092;8.542;2024-01-16T07:59:42;98766.84;;;11.21;48.26
9893;BME280;4985;49.092;8.542;2024-01-16T08:02:08;98766.03;;;11.20;48.15
9893;BME280;4985;49.092;8.542;2024-01-16T08:04:34;98775.59;;;11.21;48.25
9893;BME280;4985;49.092;8.542;2024-01-16T08:06:59;98778.22;;;11.21;48.41
9893;BME280;4985;49.092;8.542;2024-01-16T08:09:25;98786.13;;;11.21;48.44
9893;BME280;4985;49.092;8.542;2024-01-16T08:11:50;98787.94;;;11.21;48.22
9893;BME280;4985;49.092;8.542;2024-01-16T08:14:16;98790.56;;;11.21;48.43
9893;BME280;4985;49.092;8.542;2024-01-16T08:16:41;98795.69;;;11.22;48.23
9893;BME280;4985;49.092;8.542;2024-01-16T08:19:06;98790.56;;;11.21;48.46
9893;BME280;4985;49.092;8.542;2024-01-16T08:21:32;98799.31;;;11.21;48.53
9893;BME280;4985;49.092;8.542;2024-01-16T08:23:58;98795.69;;;11.22;48.51
9893;BME280;4985;49.092;8.542;2024-01-16T08:26:23;98798.47;;;11.21;48.36
9893;BME280;4985;49.092;8.542;2024-01-16T08:28:49;98801.94;;;11.21;48.43
9893;BME280;4985;49.092;8.542;2024-01-16T08:31:17;98804.41;;;11.23;48.36
9893;BME280;4985;49.092;8.542;2024-01-16T08:33:43;98804.41;;;11.23;48.28
9893;BME280;4985;49.092;8.542;2024-01-16T08:36:08;98799.13;;;11.23;48.33
9893;BME280;4985;49.092;8.542;2024-01-16T08:38:34;98806.22;;;11.22;48.43
9893;BME280;4985;49.092;8.542;2024-01-16T08:40:59;98807.03;;;11.23;48.21
9893;BME280;4985;49.092;8.542;2024-01-16T08:43:24;98820.38;;;11.21;48.47
9893;BME280;4985;49.092;8.542;2024-01-16T08:45:50;98811.47;;;11.22;48.25
9893;BME280;4985;49.092;8.542;2024-01-16T08:48:15;98801.94;;;11.21;48.44
9893;BME280;4985;49.092;8.542;2024-01-16T08:50:42;98812.50;;;11.21;48.22
9893;BME280;4985;49.092;8.542;2024-01-16T08:53:07;98804.59;;;11.21;48.22
9893;BME280;4985;49.092;8.542;2024-01-16T08:55:35;98811.63;;;11.21;48.40
9893;BME280;4985;49.092;8.542;2024-01-16T08:58:00;98817.56;;;11.23;48.26
9893;BME280;4985;49.092;8.542;2024-01-16T09:00:26;98821.22;;;11.22;48.53
9893;BME280;4985;49.092;8.542;2024-01-16T09:02:52;98818.38;;;11.23;48.56
9893;BME280;4985;49.092;8.542;2024-01-16T09:05:17;98817.56;;;11.23;48.39
9893;BME280;4985;49.092;8.542;2024-01-16T09:07:43;98820.22;;;11.23;48.36
9893;BME280;4985;49.092;8.542;2024-01-16T09:10:08;98817.56;;;11.23;48.20
9893;BME280;4985;49.092;8.542;2024-01-16T09:12:34;98819.38;;;11.22;48.42
9893;BME280;4985;49.092;8.542;2024-01-16T09:14:59;98829.94;;;11.22;48.65
9893;BME280;4985;49.092;8.542;2024-01-16T09:17:24;98833.38;;;11.23;48.39
9893;BME280;4985;49.092;8.542;2024-01-16T09:19:51;98835.34;;;11.21;48.24
9893;BME280;4985;49.092;8.542;2024-01-16T09:22:17;98837.84;;;11.22;48.58
9893;BME280;4985;49.092;8.542;2024-01-16T09:24:43;98840.63;;;11.21;48.59
9893;BME280;4985;49.092;8.542;2024-01-16T09:27:08;98837.97;;;11.21;48.32
9893;BME280;4985;49.092;8.542;2024-01-16T09:29:35;98845.88;;;11.21;48.42
9893;BME280;4985;49.092;8.542;2024-01-16T09:32:00;98845.06;;;11.20;48.50
9893;BME280;4985;49.092;8.542;2024-01-16T09:34:26;98842.44;;;11.20;48.43
9893;BME280;4985;49.092;8.542;2024-01-16T09:36:51;98849.53;;;11.20;48.63
9893;BME280;4985;49.092;8.542;2024-01-16T09:39:16;98845.88;;;11.21;48.36
9893;BME280;4985;49.092;8.542;2024-01-16T09:41:42;98849.53;;;11.20;48.22
9893;BME280;4985;49.092;8.542;2024-01-16T09:44:07;98839.81;;;11.20;48.27
9893;BME280;4985;49.092;8.542;2024-01-16T09:46:34;98851.16;;;11.21;48.43
9893;BME280;4985;49.092;8.542;2024-01-16T09:49:02;98844.25;;;11.20;48.63
9893;BME280;4985;49.092;8.542;2024-01-16T09:51:28;98842.44;;;11.20;48.33
9893;BME280;4985;49.092;8.542;2024-01-16T09:53:53;98850.34;;;11.20;48.54
9893;BME280;4985;49.092;8.542;2024-01-16T09:56:21;98834.53;;;11.20;48.63
9893;BME280;4985;49.092;8.542;2024-01-16T09:58:49;98838.16;;;11.19;48.60
9893;BME280;4985;49.092;8.542;2024-01-16T10:01:15;98831.91;;;11.20;48.68
9893;BME280;4985;49.092;8.542;2024-01-16T10:03:44;98829.25;;;11.20;48.68
9893;BME280;4985;49.092;8.542;2024-01-16T10:06:10;98824.00;;;11.20;48.42
9893;BME280;4985;49.092;8.542;2024-01-16T10:08:36;98819.53;;;11.21;48.51
9893;BME280;4985;49.092;8.542;2024-01-16T10:11:02;98821.34;;;11.20;48.63
9893;BME280;4985;49.092;8.542;2024-01-16T10:13:28;98810.81;;;11.20;48.54
9893;BME280;4985;49.092;8.542;2024-01-16T10:15:54;98806.22;;;11.22;48.41
9893;BME280;4985;49.092;8.542;2024-01-16T10:18:25;98800.94;;;11.22;48.58
9893;BME280;4985;49.092;8.542;2024-01-16T10:20:50;98798.31;;;11.22;48.62
9893;BME280;4985;49.092;8.542;2024-01-16T10:23:27;98796.69;;;11.21;48.57
9893;BME280;4985;49.092;8.542;2024-01-16T10:26:06;98795.81;;;11.21;48.36
9893;BME280;4985;49.092;8.542;2024-01-16T10:28:32;98799.31;;;11.21;48.64
9893;BME280;4985;49.092;8.542;2024-01-16T10:31:11;98790.41;;;11.22;48.59
9893;BME280;4985;49.092;8.542;2024-01-16T10:33:37;98789.59;;;11.22;48.30
9893;BME280;4985;49.092;8.542;2024-01-16T10:38:36;98787.78;;;11.22;48.30
9893;BME280;4985;49.092;8.542;2024-01-16T10:41:12;98772.13;;;11.21;48.48
9893;BME280;4985;49.092;8.542;2024-01-16T10:43:38;98780.69;;;11.23;48.62
9893;BME280;4985;49.092;8.542;2024-01-16T10:46:14;98777.06;;;11.24;48.36
9893;BME280;4985;49.092;8.542;2024-01-16T10:48:42;98776.22;;;11.23;48.48
9893;BME280;4985;49.092;8.542;2024-01-16T10:51:10;98779.06;;;11.22;48.51
9893;BME280;4985;49.092;8.542;2024-01-16T10:53:37;98778.06;;;11.23;48.36
9893;BME280;4985;49.092;8.542;2024-01-16T10:56:10;98779.69;;;11.24;48.38
9893;BME280;4985;49.092;8.542;2024-01-16T10:58:39;98767.16;;;11.26;48.50
9893;BME280;4985;49.092;8.542;2024-01-16T11:01:09;98762.88;;;11.25;48.58
9893;BME280;4985;49.092;8.542;2024-01-16T11:03:40;98773.22;;;11.26;48.35
9893;BME280;4985;49.092;8.542;2024-01-16T11:06:06;98769.78;;;11.26;48.51
9893;BME280;4985;49.092;8.542;2024-01-16T11:08:37;98770.59;;;11.26;48.37
9893;BME280;4985;49.092;8.542;2024-01-16T11:11:04;98767.16;;;11.26;48.28
9893;BME280;4985;49.092;8.542;2024-01-16T11:13:34;98765.31;;;11.26;48.64
9893;BME280;4985;49.092;8.542;2024-01-16T11:16:01;98764.50;;;11.26;48.67
9893;BME280;4985;49.092;8.542;2024-01-16T11:18:29;98755.59;;;11.27;48.41
9893;BME280;4985;49.092;8.542;2024-01-16T11:20:56;98745.06;;;11.27;48.41
9893;BME280;4985;49.092;8.542;2024-01-16T11:23:22;98747.50;;;11.28;48.53
9893;BME280;4985;49.092;8.542;2024-01-16T11:25:48;98739.44;;;11.30;48.43
9893;BME280;4985;49.092;8.542;2024-01-16T11:28:14;98732.53;;;11.29;48.39
9893;BME280;4985;49.092;8.542;2024-01-16T11:30:41;98724.63;;;11.29;48.46
9893;BME280;4985;49.092;8.542;2024-01-16T11:35:57;98720.97;;;11.30;48.34
9893;BME280;4985;49.092;8.542;2024-01-16T11:38:24;98720.97;;;11.30;48.38
9893;BME280;4985;49.092;8.542;2024-01-16T11:40:52;98713.06;;;11.30;48.44
9893;BME280;4985;49.092;8.542;2024-01-16T11:45:59;98714.09;;;11.29;48.22
9893;BME280;4985;49.092;8.542;2024-01-16T11:48:25;98717.34;;;11.31;48.38
9893;BME280;4985;49.092;8.542;2024-01-16T11:50:51;98708.63;;;11.30;48.24
9893;BME280;4985;49.092;8.542;2024-01-16T11:53:36;98709.25;;;11.32;48.61
9893;BME280;4985;49.092;8.542;2024-01-16T12:01:35;98691.19;;;11.29;48.32
9893;BME280;4985;49.092;8.542;2024-01-16T12:04:04;98677.00;;;11.30;48.46
9893;BME280;4985;49.092;8.542;2024-01-16T12:06:30;98688.34;;;11.31;48.68
9893;BME280;4985;49.092;8.542;2024-01-16T12:09:11;98675.84;;;11.33;48.73
9893;BME280;4985;49.092;8.542;2024-01-16T12:11:37;98667.09;;;11.32;48.61
9893;BME280;4985;49.092;8.542;2024-01-16T12:14:02;98663.50;;;11.33;48.66
9893;BME280;4985;49.092;8.542;2024-01-16T12:16:28;98652.94;;;11.33;48.48
9893;BME280;4985;49.092;8.542;2024-01-16T12:19:07;98650.94;;;11.35;48.35
9893;BME280;4985;49.092;8.542;2024-01-16T12:21:40;98651.13;;;11.34;48.30
9893;BME280;4985;49.092;8.542;2024-01-16T12:24:06;98643.22;;;11.34;48.46
9893;BME280;4985;49.092;8.542;2024-01-16T12:26:32;98641.41;;;11.34;48.26
9893;BME280;4985;49.092;8.542;2024-01-16T12:28:57;98642.22;;;11.35;48.55
9893;BME280;4985;49.092;8.542;2024-01-16T12:31:23;98643.03;;;11.35;48.54
9893;BME280;4985;49.092;8.542;2024-01-16T12:33:50;98643.84;;;11.36;48.34
9893;BME280;4985;49.092;8.542;2024-01-16T12:36:16;98650.75;;;11.37;48.38
9893;BME280;4985;49.092;8.542;2024-01-16T12:38:41;98656.03;;;11.37;48.49
9893;BME280;4985;49.092;8.542;2024-01-16T12:41:08;98642.84;;;11.37;48.45
9893;BME280;4985;49.092;8.542;2024-01-16T12:43:34;98635.75;;;11.37;48.62
9893;BME280;4985;49.092;8.542;2024-01-16T12:46:02;98630.50;;;11.37;48.38
9893;BME280;4985;49.092;8.542;2024-01-16T12:48:28;98624.41;;;11.37;48.28
9893;BME280;4985;49.092;8.542;2024-01-16T12:51:03;98626.03;;;11.38;48.14
9893;BME280;4985;49.092;8.542;2024-01-16T12:53:29;98623.41;;;11.38;48.35
9893;BME280;4985;49.092;8.542;2024-01-16T12:55:59;98624.41;;;11.37;48.46
9893;BME280;4985;49.092;8.542;2024-01-16T12:58:35;98615.50;;;11.38;48.29
9893;BME280;4985;49.092;8.542;2024-01-16T13:01:24;98615.50;;;11.38;48.13
9893;BME280;4985;49.092;8.542;2024-01-16T13:03:50;98618.50;;;11.35;48.29
9893;BME280;4985;49.092;8.542;2024-01-16T13:06:20;98616.50;;;11.37;48.35
9893;BME280;4985;49.092;8.542;2024-01-16T13:08:49;98604.97;;;11.38;48.50
9893;BME280;4985;49.092;8.542;2024-01-16T13:11:15;98612.66;;;11.40;48.26
9893;BME280;4985;49.092;8.542;2024-01-16T13:13:44;98593.41;;;11.39;48.38
9893;BME280;4985;49.092;8.542;2024-01-16T13:16:10;98597.88;;;11.38;48.33
9893;BME280;4985;49.092;8.542;2024-01-16T13:18:36;98590.78;;;11.39;48.15
9893;BME280;4985;49.092;8.542;2024-01-16T13:21:02;98591.59;;;11.40;48.13
9893;BME280;4985;49.092;8.542;2024-01-16T13:23:28;98570.69;;;11.38;48.05
9893;BME280;4985;49.092;8.542;2024-01-16T13:25:54;98576.78;;;11.38;47.95
9893;BME280;4985;49.092;8.542;2024-01-16T13:28:27;98566.25;;;11.38;48.06
9893;BME280;4985;49.092;8.542;2024-01-16T13:30:53;98565.25;;;11.40;48.19